sensor_id;sensor_type;location;lat;lon;timestamp;pressure;altitude;pressure_sealevel;temperature;humidity
46836;BME280;32573;51.290;6.926;2024-03-29T00:01:52;97987.97;;;10.28;100.00
46836;BME280;32573;51.290;6.926;2024-03-29T00:04:21;97987.06;;;10.28;100.00
46836;BME280;32573;51.290;6.926;2024-03-29T00:06:49;97998.44;;;10.28;100.00
46836;BME280;32573;51.290;6.926;2024-03-29T00:09:17;97977.47;;;10.27;100.00
46836;BME280;32573;51.290;6.926;2024-03-29T00:11:52;97987.06;;;10.25;100.00
46836;BME280;32573;51.290;6.926;2024-03-29T00:14:22;97981.84;;;10.25;100.00
46836;BME280;32573;51.290;6.926;2024-03-29T00:16:48;97972.28;;;10.24;100.00
46836;BME280;32573;51.290;6.926;2024-03-29T00:19:18;97980.13;;;10.24;100.00
46836;BME280;32573;51.290;6.926;2024-03-29T00:21:45;97964.44;;;10.24;100.00
46836;BME280;32573;51.290;6.926;2024-03-29T00:24:15;97964.44;;;10.24;100.00
46836;BME280;32573;51.290;6.926;2024-03-29T00:26:45;97946.13;;;10.24;100.00
46836;BME280;32573;51.290;6.926;2024-03-29T00:29:12;97940.00;;;10.23;100.00
46836;BME280;32573;51.290;6.926;2024-03-29T00:31:40;97940.91;;;10.21;100.00
46836;BME280;32573;51.290;6.926;2024-03-29T00:34:10;97948.75;;;10.21;100.00
46836;BME280;32573;51.290;6.926;2024-03-29T00:36:37;97948.75;;;10.21;100.00
46836;BME280;32573;51.290;6.926;2024-03-29T00:39:05;97957.47;;;10.20;100.00
46836;BME280;32573;51.290;6.926;2024-03-29T00:41:32;97967.94;;;10.20;100.00
46836;BME280;32573;51.290;6.926;2024-03-29T00:43:59;97965.31;;;10.18;100.00
46836;BME280;32573;51.290;6.926;2024-03-29T00:46:26;97976.66;;;10.17;100.00
46836;BME280;32573;51.290;6.926;2024-03-29T00:48:55;97967.97;;;10.17;100.00
46836;BME280;32573;51.290;6.926;2024-03-29T00:51:28;97971.44;;;10.15;100.00
46836;BME280;32573;51.290;6.926;2024-03-29T00:53:54;97968.81;;;10.15;100.00
46836;BME280;32573;51.290;6.926;2024-03-29T00:56:24;97979.28;;;10.15;100.00
46836;BME280;32573;51.290;6.926;2024-03-29T00:58:50;97981.88;;;10.15;100.00
46836;BME280;32573;51.290;6.926;2024-03-29T01:01:18;97981.03;;;10.17;100.00
46836;BME280;32573;51.290;6.926;2024-03-29T01:03:44;97974.91;;;10.18;100.00
46836;BME280;32573;51.290;6.926;2024-03-29T01:06:12;97968.81;;;10.19;100.00
46836;BME280;32573;51.290;6.926;2024-03-29T01:08:39;97956.59;;;10.21;100.00
46836;BME280;32573;51.290;6.926;2024-03-29T01:11:08;97941.78;;;10.20;100.00
46836;BME280;32573;51.290;6.926;2024-03-29T01:13:35;97957.47;;;10.20;100.00
46836;BME280;32573;51.290;6.926;2024-03-29T01:16:02;97957.47;;;10.20;100.00
46836;BME280;32573;51.290;6.926;2024-03-29T01:18:28;97952.25;;;10.20;100.00
46836;BME280;32573;51.290;6.926;2024-03-29T01:20:58;97960.97;;;10.22;100.00
46836;BME280;32573;51.290;6.926;2024-03-29T01:23:26;97956.59;;;10.22;100.00
46836;BME280;32573;51.290;6.926;2024-03-29T01:25:53;97967.91;;;10.23;100.00
46836;BME280;32573;51.290;6.926;2024-03-29T01:28:20;97991.44;;;10.24;100.00
46836;BME280;32573;51.290;6.926;2024-03-29T01:30:52;97992.31;;;10.25;100.00
46836;BME280;32573;51.290;6.926;2024-03-29T01:33:19;97990.53;;;10.27;100.00
46836;BME280;32573;51.290;6.926;2024-03-29T01:35:46;97976.63;;;10.28;100.00
46836;BME280;32573;51.290;6.926;2024-03-29T01:38:14;97978.38;;;10.29;100.00
46836;BME280;32573;51.290;6.926;2024-03-29T01:40:43;97979.25;;;10.31;100.00
46836;BME280;32573;51.290;6.926;2024-03-29T01:43:10;97975.72;;;10.32;100.00
46836;BME280;32573;51.290;6.926;2024-03-29T01:45:38;97962.66;;;10.32;100.00
46836;BME280;32573;51.290;6.926;2024-03-29T01:48:06;97967.00;;;10.33;100.00
46836;BME280;32573;51.290;6.926;2024-03-29T01:50:34;97970.50;;;10.33;100.00
46836;BME280;32573;51.290;6.926;2024-03-29T01:53:05;97949.56;;;10.35;100.00
46836;BME280;32573;51.290;6.926;2024-03-29T01:55:37;97946.94;;;10.35;100.00
46836;BME280;32573;51.290;6.926;2024-03-29T01:58:07;97946.94;;;10.36;100.00
46836;BME280;32573;51.290;6.926;2024-03-29T02:00:36;97939.09;;;10.36;100.00
46836;BME280;32573;51.290;6.926;2024-03-29T02:03:07;97929.47;;;10.40;100.00
46836;BME280;32573;51.290;6.926;2024-03-29T02:05:39;97926.84;;;10.42;100.00
46836;BME280;32573;51.290;6.926;2024-03-29T02:08:08;97919.00;;;10.42;100.00
46836;BME280;32573;51.290;6.926;2024-03-29T02:10:35;97908.50;;;10.43;100.00
46836;BME280;32573;51.290;6.926;2024-03-29T02:13:04;97895.44;;;10.43;100.00
46836;BME280;32573;51.290;6.926;2024-03-29T02:15:33;97886.72;;;10.44;100.00
46836;BME280;32573;51.290;6.926;2024-03-29T02:18:00;97892.81;;;10.46;100.00
46836;BME280;32573;51.290;6.926;2024-03-29T02:20:28;97895.44;;;10.46;100.00
46836;BME280;32573;51.290;6.926;2024-03-29T02:23:00;97902.38;;;10.47;100.00
46836;BME280;32573;51.290;6.926;2024-03-29T02:25:31;97900.63;;;10.49;100.00
46836;BME280;32573;51.290;6.926;2024-03-29T02:28:01;97884.06;;;10.49;100.00
46836;BME280;32573;51.290;6.926;2024-03-29T02:30:29;97875.34;;;10.51;100.00
46836;BME280;32573;51.290;6.926;2024-03-29T02:33:01;97883.16;;;10.53;100.00
46836;BME280;32573;51.290;6.926;2024-03-29T02:35:30;97885.75;;;10.54;100.00
46836;BME280;32573;51.290;6.926;2024-03-29T02:38:01;97897.09;;;10.56;100.00
46836;BME280;32573;51.290;6.926;2024-03-29T02:40:30;97906.66;;;10.59;100.00
46836;BME280;32573;51.290;6.926;2024-03-29T02:42:58;97919.69;;;10.62;100.00
46836;BME280;32573;51.290;6.926;2024-03-29T02:45:26;97918.78;;;10.65;100.00
46836;BME280;32573;51.290;6.926;2024-03-29T02:47:53;97918.78;;;10.65;100.00
46836;BME280;32573;51.290;6.926;2024-03-29T02:50:20;97918.75;;;10.68;100.00
46836;BME280;32573;51.290;6.926;2024-03-29T02:52:47;97915.28;;;10.69;100.00
46836;BME280;32573;51.290;6.926;2024-03-29T02:55:14;97918.75;;;10.71;100.00
46836;BME280;32573;51.290;6.926;2024-03-29T02:57:48;97917.00;;;10.70;100.00
46836;BME280;32573;51.290;6.926;2024-03-29T03:00:17;97926.59;;;10.71;100.00
46836;BME280;32573;51.290;6.926;2024-03-29T03:02:45;97916.97;;;10.73;100.00
46836;BME280;32573;51.290;6.926;2024-03-29T03:05:14;97914.34;;;10.73;100.00
46836;BME280;32573;51.290;6.926;2024-03-29T03:07:46;97907.41;;;10.73;100.00
46836;BME280;32573;51.290;6.926;2024-03-29T03:10:35;97903.91;;;10.71;100.00
46836;BME280;32573;51.290;6.926;2024-03-29T03:13:28;97903.91;;;10.71;100.00
46836;BME280;32573;51.290;6.926;2024-03-29T03:15:58;97902.16;;;10.72;100.00
46836;BME280;32573;51.290;6.926;2024-03-29T03:18:26;97888.22;;;10.71;100.00
46836;BME280;32573;51.290;6.926;2024-03-29T03:20:53;97896.06;;;10.70;100.00
46836;BME280;32573;51.290;6.926;2024-03-29T03:23:24;97896.06;;;10.70;100.00
46836;BME280;32573;51.290;6.926;2024-03-29T03:25:54;97896.06;;;10.68;100.00
46836;BME280;32573;51.290;6.926;2024-03-29T03:28:25;97883.88;;;10.69;100.00
46836;BME280;32573;51.290;6.926;2024-03-29T03:30:54;97876.91;;;10.68;100.00
46836;BME280;32573;51.290;6.926;2024-03-29T03:33:21;97876.94;;;10.66;100.00
46836;BME280;32573;51.290;6.926;2024-03-29T03:35:48;97880.41;;;10.65;100.00
46836;BME280;32573;51.290;6.926;2024-03-29T03:38:16;97886.53;;;10.64;100.00
46836;BME280;32573;51.290;6.926;2024-03-29T03:40:43;97885.69;;;10.64;100.00
46836;BME280;32573;51.290;6.926;2024-03-29T03:43:10;97875.22;;;10.64;100.00
46836;BME280;32573;51.290;6.926;2024-03-29T03:45:38;97872.59;;;10.64;100.00
46836;BME280;32573;51.290;6.926;2024-03-29T03:48:08;97870.00;;;10.64;100.00
46836;BME280;32573;51.290;6.926;2024-03-29T03:50:36;97888.31;;;10.62;100.00
46836;BME280;32573;51.290;6.926;2024-03-29T03:53:04;97874.38;;;10.62;100.00
46836;BME280;32573;51.290;6.926;2024-03-29T03:55:30;97874.38;;;10.62;100.00
46836;BME280;32573;51.290;6.926;2024-03-29T03:57:57;97876.97;;;10.62;100.00
46836;BME280;32573;51.290;6.926;2024-03-29T04:00:24;97871.78;;;10.58;100.00
46836;BME280;32573;51.290;6.926;2024-03-29T04:02:52;97876.13;;;10.61;100.00
46836;BME280;32573;51.290;6.926;2024-03-29T04:05:20;97876.13;;;10.60;100.00
46836;BME280;32573;51.290;6.926;2024-03-29T04:07:48;97885.69;;;10.61;100.00
46836;BME280;32573;51.290;6.926;2024-03-29T04:10:14;97903.13;;;10.60;100.00
46836;BME280;32573;51.290;6.926;2024-03-29T04:12:42;97906.63;;;10.61;100.00
46836;BME280;32573;51.290;6.926;2024-03-29T04:15:09;97910.97;;;10.62;100.00
46836;BME280;32573;51.290;6.926;2024-03-29T04:17:36;97893.53;;;10.61;100.00
46836;BME280;32573;51.290;6.926;2024-03-29T04:20:04;97896.16;;;10.61;100.00
46836;BME280;32573;51.290;6.926;2024-03-29T04:22:32;97904.00;;;10.61;100.00
46836;BME280;32573;51.290;6.926;2024-03-29T04:24:59;97890.91;;;10.61;100.00
46836;BME280;32573;51.290;6.926;2024-03-29T04:27:26;97885.69;;;10.61;100.00
46836;BME280;32573;51.290;6.926;2024-03-29T04:29:54;97891.81;;;10.61;100.00
46836;BME280;32573;51.290;6.926;2024-03-29T04:32:21;97888.31;;;10.61;100.00
46836;BME280;32573;51.290;6.926;2024-03-29T04:34:49;97906.63;;;10.61;100.00
46836;BME280;32573;51.290;6.926;2024-03-29T04:37:16;97906.63;;;10.61;100.00
46836;BME280;32573;51.290;6.926;2024-03-29T04:39:46;97896.16;;;10.61;100.00
46836;BME280;32573;51.290;6.926;2024-03-29T04:42:13;97897.03;;;10.60;100.00
46836;BME280;32573;51.290;6.926;2024-03-29T04:44:41;97897.94;;;10.58;100.00
46836;BME280;32573;51.290;6.926;2024-03-29T04:47:09;97901.41;;;10.59;100.00
46836;BME280;32573;51.290;6.926;2024-03-29T04:49:37;97900.56;;;10.57;100.00
46836;BME280;32573;51.290;6.926;2024-03-29T04:52:05;97897.94;;;10.55;100.00
46836;BME280;32573;51.290;6.926;2024-03-29T04:54:33;97889.28;;;10.53;100.00
46836;BME280;32573;51.290;6.926;2024-03-29T04:57:02;97888.41;;;10.50;100.00
46836;BME280;32573;51.290;6.926;2024-03-29T04:59:32;97893.69;;;10.48;100.00
46836;BME280;32573;51.290;6.926;2024-03-29T05:02:00;97888.44;;;10.47;100.00
46836;BME280;32573;51.290;6.926;2024-03-29T05:04:28;97898.06;;;10.43;100.00
46836;BME280;32573;51.290;6.926;2024-03-29T05:06:56;97883.25;;;10.41;100.00
46836;BME280;32573;51.290;6.926;2024-03-29T05:09:24;97881.53;;;10.38;100.00
46836;BME280;32573;51.290;6.926;2024-03-29T05:11:52;97874.63;;;10.34;100.00
46836;BME280;32573;51.290;6.926;2024-03-29T05:14:21;97860.69;;;10.32;100.00
46836;BME280;32573;51.290;6.926;2024-03-29T05:16:49;97844.13;;;10.30;100.00
46836;BME280;32573;51.290;6.926;2024-03-29T05:19:17;97863.34;;;10.29;100.00
46836;BME280;32573;51.290;6.926;2024-03-29T05:21:44;97870.28;;;10.27;100.00
46836;BME280;32573;51.290;6.926;2024-03-29T05:24:12;97872.03;;;10.25;100.00
46836;BME280;32573;51.290;6.926;2024-03-29T05:26:39;97862.47;;;10.22;100.00
46836;BME280;32573;51.290;6.926;2024-03-29T05:29:07;97858.13;;;10.20;100.00
46836;BME280;32573;51.290;6.926;2024-03-29T05:31:36;97862.50;;;10.18;100.00
46836;BME280;32573;51.290;6.926;2024-03-29T05:34:03;97860.81;;;10.13;100.00
46836;BME280;32573;51.290;6.926;2024-03-29T05:36:31;97862.53;;;10.14;100.00
46836;BME280;32573;51.290;6.926;2024-03-29T05:38:58;97861.69;;;10.12;100.00
46836;BME280;32573;51.290;6.926;2024-03-29T05:41:26;97865.19;;;10.11;100.00
46836;BME280;32573;51.290;6.926;2024-03-29T05:43:53;97866.94;;;10.11;100.00
46836;BME280;32573;51.290;6.926;2024-03-29T05:46:21;97873.03;;;10.10;100.00
46836;BME280;32573;51.290;6.926;2024-03-29T05:48:50;97865.22;;;10.08;100.00
46836;BME280;32573;51.290;6.926;2024-03-29T05:51:17;97847.78;;;10.07;100.00
46836;BME280;32573;51.290;6.926;2024-03-29T05:53:45;97845.16;;;10.06;100.00
46836;BME280;32573;51.290;6.926;2024-03-29T05:56:13;97844.31;;;10.05;100.00
46836;BME280;32573;51.290;6.926;2024-03-29T05:58:40;97836.47;;;10.05;100.00
46836;BME280;32573;51.290;6.926;2024-03-29T06:01:08;97837.31;;;10.06;100.00
46836;BME280;32573;51.290;6.926;2024-03-29T06:03:35;97854.78;;;10.04;100.00
46836;BME280;32573;51.290;6.926;2024-03-29T06:06:04;97844.31;;;10.05;100.00
46836;BME280;32573;51.290;6.926;2024-03-29T06:08:33;97834.72;;;10.06;100.00
46836;BME280;32573;51.290;6.926;2024-03-29T06:11:00;97853.91;;;10.06;100.00
46836;BME280;32573;51.290;6.926;2024-03-29T06:13:28;97844.31;;;10.08;100.00
46836;BME280;32573;51.290;6.926;2024-03-29T06:16:16;97837.31;;;10.07;100.00
46836;BME280;32573;51.290;6.926;2024-03-29T06:19:07;97836.47;;;10.07;100.00
46836;BME280;32573;51.290;6.926;2024-03-29T06:21:36;97832.97;;;10.08;100.00
46836;BME280;32573;51.290;6.926;2024-03-29T06:24:06;97843.41;;;10.08;100.00
46836;BME280;32573;51.290;6.926;2024-03-29T06:26:34;97838.19;;;10.08;100.00
46836;BME280;32573;51.290;6.926;2024-03-29T06:29:01;97839.09;;;10.08;100.00
46836;BME280;32573;51.290;6.926;2024-03-29T06:31:29;97839.94;;;10.07;100.00
46836;BME280;32573;51.290;6.926;2024-03-29T06:33:57;97841.69;;;10.08;100.00
46836;BME280;32573;51.290;6.926;2024-03-29T06:36:25;97848.63;;;10.09;100.00
46836;BME280;32573;51.290;6.926;2024-03-29T06:38:54;97847.75;;;10.10;100.00
46836;BME280;32573;51.290;6.926;2024-03-29T06:41:22;97846.00;;;10.12;100.00
46836;BME280;32573;51.290;6.926;2024-03-29T06:43:49;97844.25;;;10.14;100.00
46836;BME280;32573;51.290;6.926;2024-03-29T06:46:17;97835.50;;;10.15;100.00
46836;BME280;32573;51.290;6.926;2024-03-29T06:48:44;97844.22;;;10.18;100.00
46836;BME280;32573;51.290;6.926;2024-03-29T06:51:12;97845.97;;;10.19;100.00
46836;BME280;32573;51.290;6.926;2024-03-29T06:53:39;97848.53;;;10.20;100.00
46836;BME280;32573;51.290;6.926;2024-03-29T06:56:08;97844.19;;;10.21;100.00
46836;BME280;32573;51.290;6.926;2024-03-29T06:58:35;97849.41;;;10.24;100.00
46836;BME280;32573;51.290;6.926;2024-03-29T07:01:03;97853.72;;;10.25;100.00
46836;BME280;32573;51.290;6.926;2024-03-29T07:03:30;97857.22;;;10.27;100.00
46836;BME280;32573;51.290;6.926;2024-03-29T07:05:58;97856.34;;;10.28;100.00
46836;BME280;32573;51.290;6.926;2024-03-29T07:08:25;97876.41;;;10.29;100.00
46836;BME280;32573;51.290;6.926;2024-03-29T07:10:59;97847.63;;;10.32;100.00
46836;BME280;32573;51.290;6.926;2024-03-29T07:13:29;97856.31;;;10.34;100.00
46836;BME280;32573;51.290;6.926;2024-03-29T07:15:57;97871.97;;;10.37;100.00
46836;BME280;32573;51.290;6.926;2024-03-29T07:18:25;97859.75;;;10.39;100.00
46836;BME280;32573;51.290;6.926;2024-03-29T07:20:52;97870.19;;;10.42;100.00
46836;BME280;32573;51.290;6.926;2024-03-29T07:23:19;97871.91;;;10.45;100.00
46836;BME280;32573;51.290;6.926;2024-03-29T07:25:58;97880.59;;;10.45;100.00
46836;BME280;32573;51.290;6.926;2024-03-29T07:28:25;97861.41;;;10.48;100.00
46836;BME280;32573;51.290;6.926;2024-03-29T07:30:54;97867.50;;;10.51;100.00
46836;BME280;32573;51.290;6.926;2024-03-29T07:33:22;97874.44;;;10.54;100.00
46836;BME280;32573;51.290;6.926;2024-03-29T07:35:52;97886.63;;;10.56;100.00
46836;BME280;32573;51.290;6.926;2024-03-29T07:38:21;97882.25;;;10.58;100.00
46836;BME280;32573;51.290;6.926;2024-03-29T07:40:49;97907.50;;;10.61;100.00
46836;BME280;32573;51.290;6.926;2024-03-29T07:43:17;97918.78;;;10.65;100.00
46836;BME280;32573;51.290;6.926;2024-03-29T07:45:45;97906.56;;;10.67;100.00
46836;BME280;32573;51.290;6.926;2024-03-29T07:48:15;97912.66;;;10.69;100.00
46836;BME280;32573;51.290;6.926;2024-03-29T07:50:44;97914.38;;;10.71;100.00
46836;BME280;32573;51.290;6.926;2024-03-29T07:53:12;97916.09;;;10.72;100.00
46836;BME280;32573;51.290;6.926;2024-03-29T07:55:40;97938.78;;;10.73;100.00
46836;BME280;32573;51.290;6.926;2024-03-29T07:58:08;97929.19;;;10.74;100.00
46836;BME280;32573;51.290;6.926;2024-03-29T08:00:39;97920.44;;;10.75;100.00
46836;BME280;32573;51.290;6.926;2024-03-29T08:03:07;97926.53;;;10.75;100.00
46836;BME280;32573;51.290;6.926;2024-03-29T08:05:36;97922.19;;;10.76;100.00
46836;BME280;32573;51.290;6.926;2024-03-29T08:08:04;97914.31;;;10.79;100.00
46836;BME280;32573;51.290;6.926;2024-03-29T08:10:32;97916.94;;;10.79;100.00
46836;BME280;32573;51.290;6.926;2024-03-29T08:12:59;97904.69;;;10.81;100.00
46836;BME280;32573;51.290;6.926;2024-03-29T08:15:27;97902.06;;;10.83;100.00
46836;BME280;32573;51.290;6.926;2024-03-29T08:17:54;97909.91;;;10.84;100.00
46836;BME280;32573;51.290;6.926;2024-03-29T08:20:22;97928.19;;;10.87;100.00
46836;BME280;32573;51.290;6.926;2024-03-29T08:22:59;97916.81;;;10.88;100.00
46836;BME280;32573;51.290;6.926;2024-03-29T08:25:27;97920.28;;;10.90;100.00
46836;BME280;32573;51.290;6.926;2024-03-29T08:27:54;97904.59;;;10.92;100.00
46836;BME280;32573;51.290;6.926;2024-03-29T08:30:25;97908.91;;;10.94;100.00
46836;BME280;32573;51.290;6.926;2024-03-29T08:32:52;97910.63;;;10.97;100.00
46836;BME280;32573;51.290;6.926;2024-03-29T08:35:20;97917.59;;;10.99;100.00
46836;BME280;32573;51.290;6.926;2024-03-29T08:37:47;97923.69;;;11.00;100.00
46836;BME280;32573;51.290;6.926;2024-03-29T08:40:17;97914.94;;;11.02;100.00
46836;BME280;32573;51.290;6.926;2024-03-29T08:42:45;97910.56;;;11.05;100.00
46836;BME280;32573;51.290;6.926;2024-03-29T08:45:12;97914.88;;;11.09;100.00
46836;BME280;32573;51.290;6.926;2024-03-29T08:47:40;97912.22;;;11.13;100.00
46836;BME280;32573;51.290;6.926;2024-03-29T08:50:08;97913.94;;;11.14;100.00
46836;BME280;32573;51.290;6.926;2024-03-29T08:52:38;97920.88;;;11.18;100.00
46836;BME280;32573;51.290;6.926;2024-03-29T08:55:06;97932.22;;;11.19;100.00
46836;BME280;32573;51.290;6.926;2024-03-29T08:57:36;97933.06;;;11.21;100.00
46836;BME280;32573;51.290;6.926;2024-03-29T09:00:04;97951.38;;;11.24;100.00
46836;BME280;32573;51.290;6.926;2024-03-29T09:02:32;97957.47;;;11.25;100.00
46836;BME280;32573;51.290;6.926;2024-03-29T09:05:00;97955.69;;;11.27;100.00
46836;BME280;32573;51.290;6.926;2024-03-29T09:07:28;97963.53;;;11.28;100.00
46836;BME280;32573;51.290;6.926;2024-03-29T09:09:55;97946.03;;;11.30;100.00
46836;BME280;32573;51.290;6.926;2024-03-29T09:12:23;97961.75;;;11.32;100.00
46836;BME280;32573;51.290;6.926;2024-03-29T09:14:52;97949.47;;;11.35;100.00
46836;BME280;32573;51.290;6.926;2024-03-29T09:17:19;97953.84;;;11.36;100.00
46836;BME280;32573;51.290;6.926;2024-03-29T09:19:49;97954.66;;;11.40;100.00
46836;BME280;32573;51.290;6.926;2024-03-29T09:22:17;97943.28;;;11.42;100.00
46836;BME280;32573;51.290;6.926;2024-03-29T09:24:44;97943.22;;;11.47;100.00
46836;BME280;32573;51.290;6.926;2024-03-29T09:27:13;97939.72;;;11.51;100.00
46836;BME280;32573;51.290;6.926;2024-03-29T09:29:40;97944.00;;;11.57;100.00
46836;BME280;32573;51.290;6.926;2024-03-29T09:32:10;97945.69;;;11.61;100.00
46836;BME280;32573;51.290;6.926;2024-03-29T09:34:38;97941.25;;;11.66;100.00
46836;BME280;32573;51.290;6.926;2024-03-29T09:37:05;97952.56;;;11.71;100.00
46836;BME280;32573;51.290;6.926;2024-03-29T09:39:33;97955.97;;;11.76;100.00
46836;BME280;32573;51.290;6.926;2024-03-29T09:42:02;97958.56;;;11.81;100.00
46836;BME280;32573;51.290;6.926;2024-03-29T09:44:31;97970.69;;;11.85;100.00
46836;BME280;32573;51.290;6.926;2024-03-29T09:47:02;97961.97;;;11.89;100.00
46836;BME280;32573;51.290;6.926;2024-03-29T09:49:32;97969.78;;;11.94;100.00
46836;BME280;32573;51.290;6.926;2024-03-29T09:52:00;97968.81;;;11.98;100.00
46836;BME280;32573;51.290;6.926;2024-03-29T09:54:28;97959.13;;;12.03;100.00
46836;BME280;32573;51.290;6.926;2024-03-29T09:56:57;97964.34;;;12.06;100.00
46836;BME280;32573;51.290;6.926;2024-03-29T09:59:24;97959.06;;;12.09;100.00
46836;BME280;32573;51.290;6.926;2024-03-29T10:01:55;97949.38;;;12.14;100.00
46836;BME280;32573;51.290;6.926;2024-03-29T10:04:24;97953.69;;;12.18;100.00
46836;BME280;32573;51.290;6.926;2024-03-29T10:06:53;97955.38;;;12.22;100.00
46836;BME280;32573;51.290;6.926;2024-03-29T10:09:22;97959.69;;;12.25;100.00
46836;BME280;32573;51.290;6.926;2024-03-29T10:11:53;97961.41;;;12.29;100.00
46836;BME280;32573;51.290;6.926;2024-03-29T10:14:21;97967.44;;;12.33;100.00
46836;BME280;32573;51.290;6.926;2024-03-29T10:16:50;97974.41;;;12.37;100.00
46836;BME280;32573;51.290;6.926;2024-03-29T10:19:19;97982.22;;;12.40;100.00
46836;BME280;32573;51.290;6.926;2024-03-29T10:21:48;97972.56;;;12.42;100.00
46836;BME280;32573;51.290;6.926;2024-03-29T10:24:19;97976.00;;;12.45;100.00
46836;BME280;32573;51.290;6.926;2024-03-29T10:26:47;97975.06;;;12.48;100.00
46836;BME280;32573;51.290;6.926;2024-03-29T10:29:15;97988.19;;;12.51;100.00
46836;BME280;32573;51.290;6.926;2024-03-29T10:31:42;97983.78;;;12.51;100.00
46836;BME280;32573;51.290;6.926;2024-03-29T10:34:10;97988.13;;;12.54;100.00
46836;BME280;32573;51.290;6.926;2024-03-29T10:36:38;97995.97;;;12.56;100.00
46836;BME280;32573;51.290;6.926;2024-03-29T10:39:09;97991.53;;;12.59;100.00
46836;BME280;32573;51.290;6.926;2024-03-29T10:41:41;97988.00;;;12.60;100.00
46836;BME280;32573;51.290;6.926;2024-03-29T10:44:09;97978.34;;;12.62;100.00
46836;BME280;32573;51.290;6.926;2024-03-29T10:46:38;97972.25;;;12.63;100.00
46836;BME280;32573;51.290;6.926;2024-03-29T10:49:08;97969.56;;;12.65;100.00
46836;BME280;32573;51.290;6.926;2024-03-29T10:51:38;97980.00;;;12.68;100.00
46836;BME280;32573;51.290;6.926;2024-03-29T10:54:06;97987.00;;;12.70;100.00
46836;BME280;32573;51.290;6.926;2024-03-29T10:56:35;98000.94;;;12.74;100.00
46836;BME280;32573;51.290;6.926;2024-03-29T10:59:11;97992.13;;;12.78;100.00
46836;BME280;32573;51.290;6.926;2024-03-29T11:01:41;97990.28;;;12.83;100.00
46836;BME280;32573;51.290;6.926;2024-03-29T11:04:13;97987.56;;;12.88;100.00
46836;BME280;32573;51.290;6.926;2024-03-29T11:06:46;97976.09;;;12.93;100.00
46836;BME280;32573;51.290;6.926;2024-03-29T11:09:17;97980.38;;;12.99;100.00
46836;BME280;32573;51.290;6.926;2024-03-29T11:11:49;97972.38;;;13.05;100.00
46836;BME280;32573;51.290;6.926;2024-03-29T11:14:23;97973.19;;;13.10;100.00
46836;BME280;32573;51.290;6.926;2024-03-29T11:16:54;97966.97;;;13.14;100.00
46836;BME280;32573;51.290;6.926;2024-03-29T11:19:25;97969.50;;;13.21;100.00
46836;BME280;32573;51.290;6.926;2024-03-29T11:21:53;97979.91;;;13.27;100.00
46836;BME280;32573;51.290;6.926;2024-03-29T11:24:22;97983.31;;;13.32;100.00
46836;BME280;32573;51.290;6.926;2024-03-29T11:26:50;97991.97;;;13.37;100.00
46836;BME280;32573;51.290;6.926;2024-03-29T11:29:20;97993.66;;;13.41;100.00
46836;BME280;32573;51.290;6.926;2024-03-29T11:31:56;98004.09;;;13.44;100.00
46836;BME280;32573;51.290;6.926;2024-03-29T11:34:23;98013.69;;;13.48;100.00
46836;BME280;32573;51.290;6.926;2024-03-29T11:36:51;97999.63;;;13.49;100.00
46836;BME280;32573;51.290;6.926;2024-03-29T11:39:22;98002.19;;;13.52;100.00
46836;BME280;32573;51.290;6.926;2024-03-29T11:41:51;98004.81;;;13.54;100.00
46836;BME280;32573;51.290;6.926;2024-03-29T11:44:23;98007.41;;;13.55;100.00
46836;BME280;32573;51.290;6.926;2024-03-29T11:46:51;97990.66;;;13.59;100.00
46836;BME280;32573;51.290;6.926;2024-03-29T11:49:20;97993.22;;;13.63;100.00
46836;BME280;32573;51.290;6.926;2024-03-29T11:51:47;97990.56;;;13.66;100.00
46836;BME280;32573;51.290;6.926;2024-03-29T11:54:15;97991.38;;;13.68;100.00
46836;BME280;32573;51.290;6.926;2024-03-29T11:56:42;98007.13;;;13.69;100.00
46836;BME280;32573;51.290;6.926;2024-03-29T11:59:10;98028.97;;;13.73;100.00
46836;BME280;32573;51.290;6.926;2024-03-29T12:01:41;98050.78;;;13.78;100.00
46836;BME280;32573;51.290;6.926;2024-03-29T12:04:08;98049.91;;;13.77;100.00
46836;BME280;32573;51.290;6.926;2024-03-29T12:06:37;98056.06;;;13.78;100.00
46836;BME280;32573;51.290;6.926;2024-03-29T12:09:04;98061.31;;;13.78;100.00
46836;BME280;32573;51.290;6.926;2024-03-29T12:11:32;98060.47;;;13.76;100.00
46836;BME280;32573;51.290;6.926;2024-03-29T12:13:59;98078.88;;;13.76;100.00
46836;BME280;32573;51.290;6.926;2024-03-29T12:16:27;98066.56;;;13.78;100.00
46836;BME280;32573;51.290;6.926;2024-03-29T12:18:56;98067.44;;;13.78;100.00
46836;BME280;32573;51.290;6.926;2024-03-29T12:21:24;98075.28;;;13.80;100.00
46836;BME280;32573;51.290;6.926;2024-03-29T12:23:52;98069.09;;;13.82;100.00
46836;BME280;32573;51.290;6.926;2024-03-29T12:26:19;98081.31;;;13.85;100.00
46836;BME280;32573;51.290;6.926;2024-03-29T12:28:49;98081.28;;;13.88;100.00
46836;BME280;32573;51.290;6.926;2024-03-29T12:31:17;98082.97;;;13.91;100.00
46836;BME280;32573;51.290;6.926;2024-03-29T12:33:51;98082.94;;;13.92;100.00
46836;BME280;32573;51.290;6.926;2024-03-29T12:36:24;98068.84;;;13.95;100.00
46836;BME280;32573;51.290;6.926;2024-03-29T12:38:54;98078.44;;;13.97;100.00
46836;BME280;32573;51.290;6.926;2024-03-29T12:41:24;98081.91;;;13.99;100.00
46836;BME280;32573;51.290;6.926;2024-03-29T12:43:52;98089.75;;;14.02;100.00
46836;BME280;32573;51.290;6.926;2024-03-29T12:46:19;98082.69;;;14.05;100.00
46836;BME280;32573;51.290;6.926;2024-03-29T12:48:47;98082.69;;;14.05;100.00
46836;BME280;32573;51.290;6.926;2024-03-29T12:51:17;98083.53;;;14.07;100.00
46836;BME280;32573;51.290;6.926;2024-03-29T12:53:47;98084.38;;;14.09;100.00
46836;BME280;32573;51.290;6.926;2024-03-29T12:56:15;98087.00;;;14.09;100.00
46836;BME280;32573;51.290;6.926;2024-03-29T12:58:43;98085.22;;;14.11;100.00